Time;durP1;ratioP1;P1;durP2;ratioP2;P2;SDS_P1;SDS_P2;PMS_P1;PMS_P2;Temp;Humidity;BMP_temperature;BMP_pressure;BME280_temperature;BME280_humidity;BME280_pressure;Samples;Min_cycle;Max_cycle;Signal;HPM_P1;HPM_P2
2022/05/09 00:02:23;;;;;;;7.20;4.15;;;16.60;49.30;;;;;;5082466;28;20028;-58
2022/05/09 00:04:49;;;;;;;8.05;5.20;;;16.60;49.30;;;;;;5095994;28;20040;-57
2022/05/09 00:07:15;;;;;;;7.80;4.75;;;16.60;49.40;;;;;;5088713;28;20024;-57
2022/05/09 00:09:42;;;;;;;7.20;4.72;;;16.60;49.40;;;;;;5076183;28;20431;-57
2022/05/09 00:12:08;;;;;;;6.90;4.57;;;16.60;49.70;;;;;;5089343;28;20033;-58
2022/05/09 00:14:34;;;;;;;6.32;4.72;;;16.60;49.70;;;;;;5075769;28;20025;-57
2022/05/09 00:16:59;;;;;;;6.93;3.83;;;16.50;49.70;;;;;;5087659;28;20043;-57
2022/05/09 00:19:25;;;;;;;5.35;3.90;;;16.50;50.30;;;;;;5090889;28;20027;-57
2022/05/09 00:21:52;;;;;;;9.80;4.20;;;16.50;50.80;;;;;;5088851;28;20115;-57
2022/05/09 00:24:18;;;;;;;6.97;4.70;;;16.60;51.50;;;;;;5076747;28;20107;-58
2022/05/09 00:26:45;;;;;;;3.53;2.97;;;16.60;52.30;;;;;;5089297;28;20028;-57
2022/05/09 00:29:13;;;;;;;5.15;2.88;;;16.60;53.00;;;;;;5093735;28;20399;-57
2022/05/09 00:31:40;;;;;;;3.10;2.80;;;16.70;53.60;;;;;;5094478;28;20462;-57
2022/05/09 00:34:06;;;;;;;5.40;3.45;;;16.80;53.90;;;;;;5095203;28;20020;-57
2022/05/09 00:36:32;;;;;;;5.10;3.55;;;16.90;54.30;;;;;;5094620;28;20020;-57
2022/05/09 00:38:59;;;;;;;4.63;3.83;;;17.00;54.60;;;;;;5094850;28;20020;-57
2022/05/09 00:41:34;;;;;;;5.55;3.33;;;17.10;55.10;;;;;;5094697;28;20027;-58
2022/05/09 00:44:01;;;;;;;4.40;3.70;;;17.10;55.20;;;;;;5090290;28;20131;-58
2022/05/09 00:46:28;;;;;;;6.35;4.05;;;17.20;55.30;;;;;;5090816;28;20031;-57
2022/05/09 00:49:02;;;;;;;5.60;3.75;;;17.20;55.40;;;;;;5079649;28;20086;-57
2022/05/09 00:51:29;;;;;;;7.80;3.65;;;17.20;55.70;;;;;;5074770;28;20036;-57
2022/05/09 00:53:57;;;;;;;6.30;3.97;;;17.20;55.80;;;;;;5058949;28;20078;-57
2022/05/09 00:56:42;;;;;;;5.05;3.63;;;17.20;55.80;;;;;;5084839;28;20028;-57
2022/05/09 00:59:13;;;;;;;6.95;4.47;;;17.20;56.00;;;;;;5074678;28;20103;-57
2022/05/09 01:01:40;;;;;;;5.97;4.28;;;17.20;56.30;;;;;;5086724;28;20020;-58
2022/05/09 01:04:19;;;;;;;6.13;4.20;;;17.10;56.10;;;;;;5090535;28;20028;-58
2022/05/09 01:06:45;;;;;;;7.00;4.45;;;17.10;56.00;;;;;;5087367;28;20062;-57
2022/05/09 01:09:11;;;;;;;6.95;4.07;;;17.00;56.00;;;;;;5089892;28;20388;-57
2022/05/09 01:11:38;;;;;;;5.53;4.05;;;16.90;55.80;;;;;;5074668;28;20039;-57
2022/05/09 01:14:18;;;;;;;5.65;4.47;;;16.90;55.70;;;;;;5086399;28;20044;-57
2022/05/09 01:16:46;;;;;;;5.57;4.28;;;16.80;55.90;;;;;;5087085;28;20388;-58
2022/05/09 01:19:35;;;;;;;6.32;4.50;;;16.80;55.80;;;;;;5082830;28;20024;-57
2022/05/09 01:22:02;;;;;;;6.65;4.40;;;16.80;55.80;;;;;;5094786;28;20032;-57
2022/05/09 01:24:28;;;;;;;6.18;4.65;;;16.80;56.20;;;;;;5094016;28;20407;-57
2022/05/09 01:26:55;;;;;;;5.63;4.20;;;16.70;56.40;;;;;;5083388;28;20024;-56
2022/05/09 01:29:35;;;;;;;6.53;5.07;;;16.70;56.40;;;;;;5090522;28;20032;-57
2022/05/09 01:32:02;;;;;;;6.90;5.28;;;16.70;56.50;;;;;;5074804;28;20074;-58
2022/05/09 01:34:30;;;;;;;7.53;4.85;;;16.70;56.30;;;;;;5074305;28;20454;-57
2022/05/09 01:37:04;;;;;;;6.10;4.65;;;16.60;55.90;;;;;;5086156;28;20028;-57
2022/05/09 01:39:31;;;;;;;6.57;5.07;;;16.60;55.80;;;;;;5087357;28;20392;-57
2022/05/09 01:41:57;;;;;;;8.45;5.55;;;16.50;55.60;;;;;;5073577;28;20028;-57
2022/05/09 01:44:23;;;;;;;7.35;4.93;;;16.50;55.80;;;;;;5080123;28;20020;-57
2022/05/09 01:49:35;;;;;;;6.00;4.80;;;16.40;56.20;;;;;;5093110;28;20118;-57
2022/05/09 01:52:04;;;;;;;5.57;4.38;;;16.40;56.10;;;;;;5084973;28;20074;-58
2022/05/09 01:54:30;;;;;;;6.00;4.72;;;16.30;56.00;;;;;;5094116;28;20487;-57
2022/05/09 01:56:56;;;;;;;6.78;4.38;;;16.30;56.10;;;;;;5092960;28;20067;-58
2022/05/09 01:59:22;;;;;;;7.75;4.63;;;16.20;56.10;;;;;;5083895;28;20036;-58
2022/05/09 02:01:58;;;;;;;5.18;4.25;;;16.20;56.20;;;;;;5072447;28;20108;-58
2022/05/09 02:04:24;;;;;;;6.70;4.10;;;16.10;56.30;;;;;;5073973;28;20473;-57
2022/05/09 02:06:50;;;;;;;6.22;4.10;;;16.10;56.50;;;;;;5086604;28;20088;-57
2022/05/09 02:09:16;;;;;;;7.57;4.65;;;16.10;56.30;;;;;;5087876;28;20040;-57
2022/05/09 02:11:41;;;;;;;7.15;4.47;;;16.00;56.40;;;;;;5092276;28;20020;-57
2022/05/09 02:14:07;;;;;;;5.25;4.05;;;16.00;56.30;;;;;;5093681;28;20097;-57
2022/05/09 02:16:33;;;;;;;5.07;3.85;;;16.00;56.30;;;;;;5092520;28;20028;-57
2022/05/09 02:18:59;;;;;;;5.22;4.25;;;15.90;56.30;;;;;;5086825;28;20029;-57
2022/05/09 02:21:25;;;;;;;7.78;4.53;;;15.90;56.20;;;;;;5073028;28;20051;-57
2022/05/09 02:23:50;;;;;;;6.10;4.43;;;15.90;56.10;;;;;;5086487;28;20514;-57
2022/05/09 02:26:16;;;;;;;5.15;3.67;;;15.80;56.10;;;;;;5088360;28;20020;-56
2022/05/09 02:28:42;;;;;;;6.20;4.15;;;15.70;56.10;;;;;;5092422;28;20024;-57
2022/05/09 02:31:08;;;;;;;8.45;4.25;;;15.70;56.00;;;;;;5079499;28;20035;-57
2022/05/09 02:33:34;;;;;;;5.18;4.18;;;15.70;55.90;;;;;;5093560;28;20043;-57
2022/05/09 02:36:00;;;;;;;5.97;4.45;;;15.70;55.70;;;;;;5089103;28;20032;-57
2022/05/09 02:38:28;;;;;;;4.72;3.97;;;15.70;56.40;;;;;;5082158;28;20036;-57
2022/05/09 02:40:54;;;;;;;4.85;4.05;;;15.70;55.80;;;;;;5086760;28;20471;-57
2022/05/09 02:43:20;;;;;;;4.50;3.90;;;15.70;55.70;;;;;;5084074;28;20050;-56
2022/05/09 02:45:46;;;;;;;6.85;3.90;;;15.70;55.60;;;;;;5093216;28;20021;-57
2022/05/09 02:48:13;;;;;;;6.65;4.00;;;15.70;55.50;;;;;;5093606;28;20102;-57
2022/05/09 02:50:39;;;;;;;7.47;3.80;;;15.70;55.40;;;;;;5093062;28;20032;-57
2022/05/09 02:53:07;;;;;;;5.55;4.15;;;15.80;55.40;;;;;;5091401;28;20547;-57
2022/05/09 02:55:34;;;;;;;5.30;3.83;;;15.80;55.40;;;;;;5072993;28;20039;-57
2022/05/09 02:58:01;;;;;;;6.03;4.32;;;15.80;55.40;;;;;;5079174;28;20058;-57
2022/05/09 03:00:29;;;;;;;6.22;4.28;;;15.90;55.60;;;;;;5080956;28;20122;-57
2022/05/09 03:05:42;;;;;;;7.22;4.90;;;15.90;55.80;;;;;;5086333;28;20133;-58
2022/05/09 03:08:10;;;;;;;5.78;4.50;;;16.00;55.60;;;;;;5093584;28;20032;-57
2022/05/09 03:10:37;;;;;;;7.50;4.60;;;16.00;55.50;;;;;;5087681;28;20024;-57
2022/05/09 03:13:05;;;;;;;7.22;4.75;;;16.10;55.50;;;;;;5080946;28;20120;-57
2022/05/09 03:15:34;;;;;;;5.45;4.28;;;16.10;55.60;;;;;;5078383;28;20123;-57
2022/05/09 03:18:00;;;;;;;6.90;4.32;;;16.20;55.50;;;;;;5088869;28;20433;-57
2022/05/09 03:20:25;;;;;;;8.13;4.55;;;16.40;55.60;;;;;;5096571;28;20044;-57
2022/05/09 03:22:51;;;;;;;5.65;4.10;;;16.50;55.60;;;;;;5097027;28;20089;-57
2022/05/09 03:25:17;;;;;;;5.65;4.60;;;16.60;55.50;;;;;;5096737;28;20421;-57
2022/05/09 03:27:43;;;;;;;6.45;4.68;;;16.70;55.60;;;;;;5095559;28;20085;-58
2022/05/09 03:30:12;;;;;;;5.95;4.47;;;16.90;55.50;;;;;;5096624;28;20024;-57
2022/05/09 03:32:39;;;;;;;6.75;4.82;;;17.00;55.50;;;;;;5096097;28;20153;-57
2022/05/09 03:35:06;;;;;;;5.80;4.00;;;17.20;55.60;;;;;;5083522;28;20070;-57
2022/05/09 03:37:32;;;;;;;6.00;4.38;;;17.30;55.50;;;;;;5095173;28;20104;-57
2022/05/09 03:39:57;;;;;;;6.38;4.50;;;17.40;55.80;;;;;;5080991;28;20463;-57
2022/05/09 03:42:23;;;;;;;6.20;5.50;;;17.50;56.10;;;;;;5086176;28;20056;-57
2022/05/09 03:44:49;;;;;;;8.85;5.25;;;17.70;56.50;;;;;;5075758;28;20097;-57
2022/05/09 03:47:15;;;;;;;8.35;5.93;;;17.80;56.70;;;;;;5075733;28;20033;-57
2022/05/09 03:49:41;;;;;;;5.95;4.80;;;17.90;57.00;;;;;;5075856;28;20035;-56
2022/05/09 03:52:06;;;;;;;5.85;5.05;;;18.10;57.10;;;;;;5083576;28;20044;-57
2022/05/09 03:54:33;;;;;;;6.40;4.97;;;18.30;57.40;;;;;;5081187;28;20035;-57
2022/05/09 03:56:58;;;;;;;8.50;5.22;;;18.50;57.50;;;;;;5075544;28;20032;-57
2022/05/09 03:59:24;;;;;;;5.65;4.63;;;18.80;57.70;;;;;;5075556;28;20021;-58
2022/05/09 04:01:50;;;;;;;5.18;4.60;;;19.00;57.40;;;;;;5087948;28;20059;-57
2022/05/09 04:04:16;;;;;;;6.85;5.07;;;19.30;57.00;;;;;;5075924;28;20427;-57
2022/05/09 04:06:42;;;;;;;5.20;4.60;;;19.40;56.60;;;;;;5075287;28;20023;-57
2022/05/09 04:09:08;;;;;;;6.10;4.70;;;19.40;56.40;;;;;;5080185;28;20028;-58
2022/05/09 04:11:33;;;;;;;5.57;4.88;;;19.30;56.60;;;;;;5084078;28;20023;-57
2022/05/09 04:13:59;;;;;;;6.25;4.80;;;19.10;56.80;;;;;;5075549;28;20469;-57
2022/05/09 04:19:09;;;;;;;6.72;5.57;;;18.70;57.40;;;;;;5094790;28;20043;-57
2022/05/09 04:21:34;;;;;;;6.03;5.22;;;18.60;58.00;;;;;;5091325;28;20040;-57
2022/05/09 04:24:02;;;;;;;6.55;5.18;;;18.40;58.50;;;;;;5095012;28;20024;-57
2022/05/09 04:26:31;;;;;;;6.65;5.53;;;18.20;58.90;;;;;;5101224;28;20073;-57
2022/05/09 04:28:57;;;;;;;6.35;5.25;;;18.10;59.60;;;;;;5095186;28;20473;-57
2022/05/09 04:31:23;;;;;;;5.60;4.55;;;18.20;60.30;;;;;;5094693;28;20036;-57
2022/05/09 04:33:49;;;;;;;5.65;4.70;;;18.60;60.80;;;;;;5079593;28;20043;-57
2022/05/09 04:36:15;;;;;;;5.38;4.60;;;19.30;60.50;;;;;;5074868;28;20054;-57
2022/05/09 04:38:43;;;;;;;5.53;4.68;;;19.90;59.30;;;;;;5085893;28;20059;-57
2022/05/09 04:41:10;;;;;;;5.65;4.47;;;20.30;58.40;;;;;;5075502;28;20020;-57
2022/05/09 04:43:36;;;;;;;5.95;4.60;;;20.30;58.10;;;;;;5088078;28;20421;-57
2022/05/09 04:46:04;;;;;;;6.05;4.90;;;20.30;58.00;;;;;;5074939;28;20233;-57
2022/05/09 04:48:30;;;;;;;5.97;4.78;;;20.50;58.70;;;;;;5089661;28;20028;-58
2022/05/09 04:50:56;;;;;;;4.90;4.13;;;21.10;58.60;;;;;;5092331;28;20387;-57
2022/05/09 04:53:22;;;;;;;5.75;4.55;;;21.80;57.90;;;;;;5084352;28;20083;-57
2022/05/09 04:55:48;;;;;;;5.25;4.30;;;22.40;56.90;;;;;;5085433;28;20055;-57
2022/05/09 04:58:21;;;;;;;5.55;4.05;;;22.70;55.80;;;;;;5083031;28;20023;-57
2022/05/09 05:00:47;;;;;;;5.50;4.38;;;22.90;55.50;;;;;;5092126;28;20488;-58
2022/05/09 05:03:14;;;;;;;5.35;4.18;;;23.10;55.30;;;;;;5089223;28;20111;-58
2022/05/09 05:05:40;;;;;;;5.13;3.90;;;23.30;55.00;;;;;;5087948;28;20399;-58
2022/05/09 05:08:06;;;;;;;5.38;4.22;;;23.60;54.70;;;;;;5086362;28;20154;-58
2022/05/09 05:10:32;;;;;;;4.18;3.78;;;23.70;54.30;;;;;;5089068;28;20495;-58
2022/05/09 05:12:59;;;;;;;5.00;3.97;;;23.80;54.00;;;;;;5092341;28;20032;-58
2022/05/09 05:15:28;;;;;;;5.35;3.67;;;23.90;54.20;;;;;;5089173;28;20036;-57
2022/05/09 05:17:54;;;;;;;4.28;3.80;;;24.10;54.30;;;;;;5087618;28;20664;-58
2022/05/09 05:20:19;;;;;;;4.57;3.65;;;24.30;53.90;;;;;;5082821;28;20043;-58
2022/05/09 05:22:47;;;;;;;3.90;3.30;;;24.60;53.20;;;;;;5088998;28;20078;-59
2022/05/09 05:25:18;;;;;;;3.33;2.92;;;24.90;52.50;;;;;;5087057;28;20024;-59
2022/05/09 05:27:44;;;;;;;4.88;3.45;;;24.90;51.90;;;;;;5087138;28;20032;-59
2022/05/09 05:30:10;;;;;;;4.10;3.47;;;24.80;51.90;;;;;;5089648;28;20028;-59
2022/05/09 05:32:37;;;;;;;4.30;3.70;;;24.60;52.10;;;;;;5084795;28;20391;-59
2022/05/09 05:35:07;;;;;;;3.63;3.28;;;24.40;52.40;;;;;;5086628;28;20028;-58
2022/05/09 05:37:33;;;;;;;4.60;3.57;;;24.10;52.60;;;;;;5090358;28;20525;-59
2022/05/09 05:40:00;;;;;;;4.65;3.72;;;23.80;52.70;;;;;;5090196;28;20028;-59
2022/05/09 05:42:27;;;;;;;4.20;3.65;;;23.60;53.10;;;;;;5076754;28;20026;-58
2022/05/09 05:44:53;;;;;;;4.65;3.20;;;23.20;53.20;;;;;;5081319;28;20105;-59
2022/05/09 05:47:20;;;;;;;3.97;3.58;;;22.90;53.60;;;;;;5085196;28;20511;-59
2022/05/09 05:49:47;;;;;;;4.63;3.40;;;22.60;54.10;;;;;;5088371;28;20058;-58
2022/05/09 05:52:14;;;;;;;4.38;3.38;;;22.20;54.40;;;;;;5088449;28;20039;-59
2022/05/09 05:54:43;;;;;;;4.30;3.60;;;21.90;54.90;;;;;;5077995;28;20036;-58
2022/05/09 05:57:22;;;;;;;4.50;3.67;;;21.60;55.80;;;;;;5087470;28;20082;-58
2022/05/09 05:59:53;;;;;;;3.80;3.08;;;21.20;57.10;;;;;;5082689;28;20020;-58
2022/05/09 06:02:21;;;;;;;3.65;3.28;;;20.90;57.10;;;;;;5082094;28;20028;-58
2022/05/09 06:04:47;;;;;;;3.75;3.20;;;20.70;57.70;;;;;;5088818;28;20111;-58
2022/05/09 06:07:16;;;;;;;3.33;2.90;;;20.40;58.20;;;;;;5079840;28;20039;-58
2022/05/09 06:09:47;;;;;;;3.15;2.85;;;20.30;58.90;;;;;;5078521;28;20039;-58
2022/05/09 06:12:16;;;;;;;3.72;3.15;;;20.10;59.40;;;;;;5076690;28;20571;-58
2022/05/09 06:14:42;;;;;;;3.33;2.80;;;20.00;59.90;;;;;;5079372;28;20036;-58
2022/05/09 06:17:10;;;;;;;3.05;2.75;;;19.90;60.00;;;;;;5082840;28;20424;-58
2022/05/09 06:19:37;;;;;;;3.90;3.13;;;19.90;60.20;;;;;;5080923;28;20036;-58
2022/05/09 06:22:03;;;;;;;2.97;2.65;;;19.90;60.40;;;;;;5080966;28;20118;-58
2022/05/09 06:24:29;;;;;;;3.20;2.90;;;19.90;60.50;;;;;;5079695;28;20028;-58
2022/05/09 06:26:55;;;;;;;3.05;2.75;;;19.90;60.50;;;;;;5082684;28;20519;-58
2022/05/09 06:29:21;;;;;;;3.72;3.22;;;19.90;60.60;;;;;;5083293;28;20023;-58
2022/05/09 06:31:47;;;;;;;3.38;3.00;;;19.90;60.80;;;;;;5082712;28;20398;-58
2022/05/09 06:34:13;;;;;;;3.17;2.88;;;20.00;60.90;;;;;;5079620;28;20384;-57
2022/05/09 06:36:41;;;;;;;3.22;2.92;;;20.00;60.80;;;;;;5078090;28;21487;-57
2022/05/09 06:39:08;;;;;;;2.78;2.55;;;19.90;60.80;;;;;;5072235;28;20031;-58
2022/05/09 06:41:34;;;;;;;3.75;2.70;;;19.90;60.70;;;;;;5078678;28;20035;-58
2022/05/09 06:44:00;;;;;;;2.70;2.50;;;19.80;60.60;;;;;;5076941;28;20032;-58
2022/05/09 06:46:26;;;;;;;3.25;2.63;;;19.70;60.70;;;;;;5082768;28;20050;-58
2022/05/09 06:48:52;;;;;;;3.75;2.50;;;19.60;60.90;;;;;;5077778;28;20060;-56
2022/05/09 06:51:18;;;;;;;3.42;2.67;;;19.50;61.20;;;;;;5084923;28;20024;-58
2022/05/09 06:53:44;;;;;;;2.70;2.50;;;19.40;61.40;;;;;;5079206;28;20093;-59
2022/05/09 06:56:11;;;;;;;2.70;2.50;;;19.30;61.60;;;;;;5080766;28;20031;-57
2022/05/09 06:58:38;;;;;;;2.97;2.60;;;19.20;61.90;;;;;;5066674;28;20036;-58
2022/05/09 07:01:14;;;;;;;2.55;2.35;;;19.10;62.30;;;;;;5076873;28;20028;-59
2022/05/09 07:03:41;;;;;;;2.75;2.45;;;19.20;62.60;;;;;;5073365;28;20020;-58
2022/05/09 07:06:07;;;;;;;2.20;2.00;;;19.20;62.50;;;;;;5051904;28;20829;-59
2022/05/09 07:08:35;;;;;;;2.97;2.67;;;19.30;62.30;;;;;;5073716;28;20032;-59
2022/05/09 07:11:02;;;;;;;2.75;2.50;;;19.30;62.20;;;;;;5066085;28;20020;-58
2022/05/09 07:13:28;;;;;;;2.97;2.33;;;19.40;62.30;;;;;;5074695;28;20040;-59
2022/05/09 07:15:57;;;;;;;2.70;2.50;;;19.50;62.30;;;;;;5072313;28;20084;-56
2022/05/09 07:18:25;;;;;;;2.55;2.35;;;19.60;62.30;;;;;;5070552;28;20069;-57
2022/05/09 07:20:51;;;;;;;3.67;2.78;;;19.70;61.80;;;;;;5072416;28;20712;-57
2022/05/09 07:23:17;;;;;;;2.92;2.72;;;19.80;61.60;;;;;;5076863;28;20025;-58
2022/05/09 07:25:42;;;;;;;3.03;2.65;;;19.80;61.60;;;;;;5072013;28;20028;-57
2022/05/09 07:28:10;;;;;;;3.70;3.22;;;19.80;61.60;;;;;;5076902;28;21458;-56
2022/05/09 07:30:36;;;;;;;3.20;2.90;;;19.90;61.50;;;;;;5073695;28;20046;-57
2022/05/09 07:33:02;;;;;;;2.95;2.67;;;19.80;61.40;;;;;;5076598;28;20035;-58
2022/05/09 07:35:28;;;;;;;2.88;2.55;;;19.80;61.40;;;;;;5071144;28;20028;-57
2022/05/09 07:37:53;;;;;;;2.67;2.47;;;19.70;61.30;;;;;;5079610;28;20035;-57
2022/05/09 07:40:20;;;;;;;2.63;2.38;;;19.60;61.20;;;;;;5074030;28;20078;-58
2022/05/09 07:42:47;;;;;;;2.50;2.28;;;19.60;61.30;;;;;;5068576;28;21498;-58
2022/05/09 07:45:16;;;;;;;2.70;2.50;;;19.50;61.00;;;;;;5072129;28;20080;-58
2022/05/09 07:47:42;;;;;;;2.70;2.50;;;19.50;61.00;;;;;;5071723;28;20040;-58
2022/05/09 07:50:10;;;;;;;5.95;2.50;;;19.40;60.80;;;;;;5069971;28;20032;-59
2022/05/09 07:52:36;;;;;;;2.28;2.17;;;19.40;60.60;;;;;;5079770;28;20024;-57
2022/05/09 07:55:03;;;;;;;2.58;2.38;;;19.40;60.70;;;;;;5075222;28;20035;-57
2022/05/09 07:57:29;;;;;;;2.75;2.55;;;19.30;60.70;;;;;;5066828;28;20384;-60
2022/05/09 07:59:54;;;;;;;2.60;2.40;;;19.30;60.70;;;;;;5071725;28;20028;-58
2022/05/09 08:02:20;;;;;;;2.75;2.30;;;19.20;61.00;;;;;;5069312;28;20028;-57
2022/05/09 08:04:46;;;;;;;2.70;2.50;;;19.20;61.20;;;;;;5069313;28;20032;-57
2022/05/09 08:07:13;;;;;;;3.25;2.65;;;19.20;61.50;;;;;;5075709;28;20043;-57
2022/05/09 08:09:39;;;;;;;2.90;2.60;;;19.20;61.60;;;;;;5063442;28;20068;-58
2022/05/09 08:12:05;;;;;;;2.78;2.58;;;19.30;61.50;;;;;;5068362;28;21250;-58
2022/05/09 08:14:31;;;;;;;2.78;2.58;;;19.30;61.40;;;;;;5064070;28;20040;-60
2022/05/09 08:16:57;;;;;;;3.33;2.60;;;19.40;61.40;;;;;;5071682;28;20129;-58
2022/05/09 08:19:23;;;;;;;3.15;2.20;;;19.30;61.40;;;;;;5065700;28;20111;-58
2022/05/09 08:21:50;;;;;;;2.25;2.10;;;19.40;61.40;;;;;;5066857;28;20399;-58
2022/05/09 08:24:17;;;;;;;2.28;2.13;;;19.40;61.60;;;;;;5073655;28;20055;-57
2022/05/09 08:26:42;;;;;;;2.38;2.17;;;19.40;61.50;;;;;;5076442;28;20051;-57
2022/05/09 08:29:09;;;;;;;2.53;2.33;;;19.50;61.10;;;;;;5069940;28;20020;-57
2022/05/09 08:31:35;;;;;;;2.85;2.63;;;19.50;61.10;;;;;;5047977;28;20024;-57
2022/05/09 08:34:00;;;;;;;2.72;2.10;;;19.60;61.20;;;;;;5071329;28;20028;-56
2022/05/09 08:39:11;;;;;;;2.50;2.15;;;19.60;60.40;;;;;;5065856;28;20975;-56
2022/05/09 08:42:04;;;;;;;2.20;2.05;;;19.60;60.20;;;;;;5069088;28;20150;-57
2022/05/09 08:45:01;;;;;;;2.05;1.88;;;19.70;60.10;;;;;;5069511;28;21053;-57
2022/05/09 08:47:55;;;;;;;2.20;2.00;;;19.80;60.00;;;;;;5068826;28;20134;-56
2022/05/09 08:50:28;;;;;;;2.20;2.05;;;19.80;59.90;;;;;;5069077;28;20032;-56
2022/05/09 08:52:57;;;;;;;2.55;2.30;;;19.90;59.80;;;;;;5073246;28;23707;-57
2022/05/09 08:55:33;;;;;;;2.13;2.03;;;19.90;59.00;;;;;;5066545;28;22372;-56
2022/05/09 08:58:13;;;;;;;2.38;2.10;;;19.90;58.70;;;;;;5071907;28;20833;-58
2022/05/09 09:00:38;;;;;;;1.80;1.70;;;19.90;58.70;;;;;;5057829;28;20024;-58
2022/05/09 09:03:30;;;;;;;1.98;1.88;;;19.90;58.60;;;;;;5065596;28;20081;-58
2022/05/09 09:06:05;;;;;;;2.20;2.10;;;19.90;58.60;;;;;;5067837;28;20129;-59
2022/05/09 09:08:43;;;;;;;1.83;1.73;;;19.90;58.30;;;;;;5075730;28;20036;-59
2022/05/09 09:11:14;;;;;;;2.08;1.80;;;19.90;58.20;;;;;;5078905;28;20020;-59
2022/05/09 09:13:48;;;;;;;;;;;19.90;58.30;;;;;;5079991;28;20032;-58
2022/05/09 09:16:42;;;;;;;2.00;1.80;;;19.80;57.80;;;;;;5074545;28;19915;-59
2022/05/09 09:19:27;;;;;;;2.05;1.85;;;19.80;57.90;;;;;;5073814;28;20047;-58
2022/05/09 09:22:20;;;;;;;1.98;1.88;;;19.80;57.50;;;;;;5061149;28;20039;-58
2022/05/09 09:25:07;;;;;;;1.85;1.75;;;19.70;57.20;;;;;;5069196;28;20544;-59
2022/05/09 09:27:37;;;;;;;2.00;1.90;;;19.70;57.20;;;;;;5074174;28;20452;-58
2022/05/09 09:30:11;;;;;;;2.28;1.92;;;19.60;57.40;;;;;;5076922;28;20063;-59
2022/05/09 09:32:41;;;;;;;2.17;2.00;;;19.60;57.20;;;;;;5064335;28;20040;-59
2022/05/09 09:35:25;;;;;;;2.15;1.85;;;19.60;57.50;;;;;;5063119;28;20036;-59
2022/05/09 09:37:58;;;;;;;2.08;1.98;;;19.60;57.80;;;;;;5070413;28;20032;-60
2022/05/09 09:40:24;;;;;;;2.90;2.33;;;19.60;57.50;;;;;;5064498;28;20032;-60
2022/05/09 09:42:56;;;;;;;2.40;2.20;;;19.50;57.40;;;;;;5074773;28;20082;-59
2022/05/09 09:45:50;;;;;;;1.90;1.80;;;19.50;57.60;;;;;;5078706;28;20514;-60
2022/05/09 09:48:22;;;;;;;2.03;1.92;;;19.40;57.60;;;;;;5072526;28;20057;-59
2022/05/09 09:51:06;;;;;;;1.60;1.50;;;19.40;57.80;;;;;;5068671;28;20039;-58
2022/05/09 09:53:32;;;;;;;1.90;1.80;;;19.30;57.70;;;;;;5063293;28;20028;-58
2022/05/09 09:56:01;;;;;;;1.83;1.73;;;19.30;57.50;;;;;;5068330;28;20028;-56
2022/05/09 09:58:28;;;;;;;2.08;1.58;;;19.30;57.40;;;;;;5075922;28;20023;-58
2022/05/09 10:01:06;;;;;;;1.85;1.75;;;19.30;57.50;;;;;;5069606;28;20024;-59
2022/05/09 10:03:34;;;;;;;2.22;2.03;;;19.40;56.80;;;;;;5077627;28;20120;-58
2022/05/09 10:06:01;;;;;;;1.63;1.40;;;19.30;56.70;;;;;;5063271;28;20039;-58
2022/05/09 10:08:35;;;;;;;2.15;1.70;;;19.30;56.40;;;;;;5063471;28;20051;-58
2022/05/09 10:11:08;;;;;;;1.40;1.40;;;19.30;56.20;;;;;;5070185;28;22599;-58
2022/05/09 10:13:40;;;;;;;2.17;1.98;;;19.20;56.90;;;;;;5074598;28;20046;-58
2022/05/09 10:16:25;;;;;;;2.15;1.95;;;19.20;56.50;;;;;;5071158;28;20077;-58
2022/05/09 10:18:50;;;;;;;2.50;1.98;;;19.20;56.20;;;;;;5072629;28;20049;-58
2022/05/09 10:24:47;;;;;;;1.67;1.58;;;19.10;55.50;;;;;;5072367;28;20100;-58
2022/05/09 10:27:27;;;;;;;1.60;1.50;;;19.10;55.10;;;;;;5069083;28;20605;-58
2022/05/09 10:30:29;;;;;;;1.23;1.20;;;19.10;55.80;;;;;;5077064;28;20127;-58
2022/05/09 10:33:11;;;;;;;2.55;1.75;;;19.10;55.20;;;;;;5073895;28;20036;-58
2022/05/09 10:35:53;;;;;;;1.75;1.65;;;19.10;55.70;;;;;;5069157;28;20089;-58
2022/05/09 10:38:39;;;;;;;1.55;1.45;;;19.00;55.30;;;;;;5075181;28;20028;-58
2022/05/09 10:41:13;;;;;;;1.65;1.55;;;19.10;55.20;;;;;;5074919;28;20503;-57
2022/05/09 10:43:45;;;;;;;3.00;2.47;;;19.00;55.30;;;;;;5074141;28;20175;-57
2022/05/09 10:46:13;;;;;;;1.70;1.60;;;19.00;54.60;;;;;;5070923;28;20028;-57
2022/05/09 10:48:53;;;;;;;1.70;1.60;;;18.90;53.80;;;;;;5070553;28;20531;-58
2022/05/09 10:51:42;;;;;;;2.50;2.03;;;18.90;53.50;;;;;;5079282;28;20036;-57
2022/05/09 10:54:30;;;;;;;1.77;1.67;;;18.90;53.30;;;;;;5035561;28;20418;-57
2022/05/09 10:57:14;;;;;;;1.70;1.60;;;18.90;53.80;;;;;;5083041;28;20039;-57
2022/05/09 10:59:42;;;;;;;1.80;1.70;;;18.90;53.60;;;;;;5083626;28;20028;-58
2022/05/09 11:02:13;;;;;;;2.30;2.10;;;18.90;53.80;;;;;;5074638;28;20027;-57
2022/05/09 11:04:39;;;;;;;3.25;2.47;;;18.90;53.50;;;;;;5071738;28;20043;-57
2022/05/09 11:07:44;;;;;;;1.55;1.45;;;18.90;53.40;;;;;;5066143;28;20930;-56
2022/05/09 11:10:39;;;;;;;2.50;1.73;;;18.90;53.20;;;;;;5064915;28;20040;-57
2022/05/09 11:13:47;;;;;;;2.15;1.95;;;18.90;52.80;;;;;;5073519;28;20119;-57
2022/05/09 11:16:58;;;;;;;1.38;1.27;;;19.00;52.80;;;;;;5069078;28;20040;-59
2022/05/09 11:19:50;;;;;;;1.73;1.63;;;19.00;53.20;;;;;;5072958;28;20082;-57
2022/05/09 11:22:26;;;;;;;1.90;1.80;;;19.00;53.40;;;;;;5037890;28;20052;-57
2022/05/09 11:25:04;;;;;;;2.03;1.83;;;19.00;53.90;;;;;;5074843;28;20857;-57
2022/05/09 11:27:50;;;;;;;1.60;1.50;;;19.00;53.60;;;;;;5075774;28;20039;-57
2022/05/09 11:30:35;;;;;;;1.55;1.45;;;19.00;54.40;;;;;;5074725;28;20047;-57
2022/05/09 11:33:30;;;;;;;2.17;1.80;;;18.90;53.10;;;;;;5077091;28;20024;-57
2022/05/09 11:36:19;;;;;;;2.00;1.73;;;18.90;53.40;;;;;;5066639;28;20068;-57
2022/05/09 11:39:06;;;;;;;1.77;1.60;;;18.90;54.30;;;;;;5072615;28;20032;-57
2022/05/09 11:41:41;;;;;;;1.73;1.52;;;18.80;53.20;;;;;;5074988;28;20041;-57
2022/05/09 11:44:17;;;;;;;1.58;1.48;;;18.80;53.20;;;;;;5074596;28;20031;-57
2022/05/09 11:47:11;;;;;;;1.80;1.60;;;18.80;53.10;;;;;;5075847;28;20028;-58
2022/05/09 11:50:01;;;;;;;2.90;2.03;;;18.80;53.30;;;;;;5076472;28;20430;-58
2022/05/09 11:52:37;;;;;;;2.83;2.13;;;18.70;52.80;;;;;;5064160;28;20112;-58
2022/05/09 11:55:12;;;;;;;3.65;2.10;;;18.70;52.60;;;;;;5074397;28;20032;-58
2022/05/09 11:57:40;;;;;;;1.90;1.80;;;18.70;52.90;;;;;;5075521;28;20036;-57
2022/05/09 12:00:26;;;;;;;2.28;2.10;;;18.60;52.80;;;;;;5032318;28;20119;-58
2022/05/09 12:02:55;;;;;;;2.00;1.80;;;18.60;52.80;;;;;;5057666;28;20028;-58
2022/05/09 12:05:27;;;;;;;1.80;1.70;;;18.60;52.80;;;;;;5076529;28;20104;-58
2022/05/09 12:08:07;;;;;;;2.40;1.85;;;18.60;52.40;;;;;;5070741;28;20122;-58
2022/05/09 12:10:36;;;;;;;2.10;1.90;;;18.60;52.50;;;;;;5077657;28;20478;-58
2022/05/09 12:13:21;;;;;;;1.75;1.65;;;18.50;52.10;;;;;;5071347;28;20359;-58
2022/05/09 12:15:49;;;;;;;2.47;1.90;;;18.50;52.10;;;;;;5078378;28;20122;-57
2022/05/09 12:18:24;;;;;;;1.60;1.50;;;18.50;51.90;;;;;;5072786;28;20039;-58
2022/05/09 12:20:52;;;;;;;3.65;1.80;;;18.50;52.20;;;;;;5069139;28;20408;-58
2022/05/09 12:23:41;;;;;;;1.60;1.50;;;18.50;51.80;;;;;;5064937;28;20395;-57
2022/05/09 12:26:07;;;;;;;2.45;1.02;;;18.50;51.30;;;;;;5072187;28;20472;-57
2022/05/09 12:28:39;;;;;;;1.52;1.42;;;18.50;51.40;;;;;;5074088;28;20560;-57
2022/05/09 12:31:30;;;;;;;2.00;1.80;;;18.50;51.50;;;;;;5078640;28;20582;-57
2022/05/09 12:33:56;;;;;;;2.30;2.10;;;18.50;51.30;;;;;;5077581;28;20024;-58
2022/05/09 12:36:25;;;;;;;2.70;2.50;;;18.40;51.10;;;;;;5071520;28;20401;-58
2022/05/09 12:38:55;;;;;;;2.00;1.80;;;18.40;51.20;;;;;;5082000;28;20075;-56
2022/05/09 12:41:26;;;;;;;2.50;2.30;;;18.40;51.40;;;;;;5077369;28;20446;-57
2022/05/09 12:44:07;;;;;;;2.17;1.98;;;18.40;51.10;;;;;;5080255;28;20024;-58
2022/05/09 12:46:37;;;;;;;2.53;2.20;;;18.40;51.20;;;;;;5077727;28;20031;-57
2022/05/09 12:49:07;;;;;;;2.97;1.98;;;18.40;51.30;;;;;;5078770;28;20040;-58
2022/05/09 12:51:40;;;;;;;2.30;2.10;;;18.40;51.50;;;;;;5077142;28;20043;-57
2022/05/09 12:54:08;;;;;;;3.08;2.40;;;18.40;51.00;;;;;;5076482;28;20037;-58
2022/05/09 12:56:37;;;;;;;3.35;2.72;;;18.30;50.80;;;;;;5076677;28;20479;-58
2022/05/09 12:59:08;;;;;;;2.70;2.50;;;18.30;50.00;;;;;;5070038;28;20051;-57
2022/05/09 13:01:34;;;;;;;;;;;18.30;50.00;;;;;;5076580;28;20426;-57
2022/05/09 13:04:06;;;;;;;2.58;2.10;;;18.30;50.10;;;;;;5069910;28;22890;-58
2022/05/09 13:06:38;;;;;;;2.38;2.17;;;18.30;50.00;;;;;;5079319;28;20472;-57
2022/05/09 13:09:19;;;;;;;3.38;2.22;;;18.20;49.20;;;;;;5071259;28;20036;-57
2022/05/09 13:11:48;;;;;;;2.60;2.40;;;18.20;48.40;;;;;;5074121;28;20416;-56
2022/05/09 13:14:51;;;;;;;3.55;2.90;;;18.20;49.30;;;;;;5068693;28;20506;-57
2022/05/09 13:17:30;;;;;;;4.03;3.63;;;18.20;49.70;;;;;;5074559;28;20054;-57
2022/05/09 13:19:58;;;;;;;5.30;4.18;;;18.20;49.60;;;;;;5070545;28;20036;-57
2022/05/09 13:22:45;;;;;;;4.88;3.75;;;18.20;49.30;;;;;;5072646;28;20039;-57